WetterOnline ( https://www.wetteronline.de )

Wetter aktuell Bodenmais

Aktuelles Wetter: Zwiesel (613m)

6-stündlich | Neueste Meldungen
Ortszeit Temperatur Wetter
Sa, 05.12. 1:00 -0.6° C wolkig
Fr, 04.12. 19:00 -1.2° C wolkenlos
Fr, 04.12. 13:00 3.2° C leicht bewölkt
Fr, 04.12. 7:00 -9.9° C bedeckt
Fr, 04.12. 1:00 -9.1° C wolkenlos
Do, 03.12. 19:00 -5.7° C wolkenlos
Do, 03.12. 13:00 -3.1° C bedeckt
Do, 03.12. 7:00 -4.1° C bewölkt
Ortszeit Temperatur Wetter
Sa, 05.12. 4:30 -2.1° C leicht bewölkt
Sa, 05.12. 4:20 -2.1° C leicht bewölkt
Sa, 05.12. 4:10 -1.9° C leicht bewölkt
Sa, 05.12. 4:00 -2.3° C wolkenlos
Sa, 05.12. 3:50 -2.3° C wolkenlos
Sa, 05.12. 3:40 -1.5° C fast wolkenlos
Sa, 05.12. 3:30 -0.7° C wolkig
Sa, 05.12. 3:00 -1.1° C wolkig
Sa, 05.12. 2:30 -1.6° C bewölkt
Sa, 05.12. 2:00 1.4° C wolkig
Sa, 05.12. 1:30 -0.4° C leicht bewölkt
Ortszeit Relative Feuchte Sichtweite
Sa, 05.12. 1:00 79% 60 km
Fr, 04.12. 19:00 86% 45 km
Fr, 04.12. 13:00 71% 35 km
Fr, 04.12. 7:00 89% 35 km
Fr, 04.12. 1:00 90% 19 km
Do, 03.12. 19:00 92% 10 km
Do, 03.12. 13:00 85% 9 km
Do, 03.12. 7:00 89% 7 km
Ortszeit Relative Feuchte Sichtweite
Sa, 05.12. 4:30 85% >70 km
Sa, 05.12. 4:20 85% -
Sa, 05.12. 4:10 85% -
Sa, 05.12. 4:00 85% 55 km
Sa, 05.12. 3:50 85% -
Sa, 05.12. 3:40 81% -
Sa, 05.12. 3:30 83% 60 km
Sa, 05.12. 3:00 81% >70 km
Sa, 05.12. 2:30 83% 55 km
Sa, 05.12. 2:00 74% >70 km
Sa, 05.12. 1:30 81% 65 km
Ortszeit Niederschlagsmenge Niederschlagsart
Sa, 05.12. 1:00 0.0 l/m2 in 6 Std. -
Fr, 04.12. 19:00 0.0 l/m2 in 12 Std. -
Fr, 04.12. 13:00 0.0 l/m2 in 6 Std. -
Fr, 04.12. 7:00 0.0 l/m2 in 12 Std. -
Fr, 04.12. 1:00 0.0 l/m2 in 6 Std. -
Do, 03.12. 19:00 0.1 l/m2 in 12 Std. -
Do, 03.12. 13:00 0.1 l/m2 in 6 Std. Schnee
Do, 03.12. 7:00 1 l/m2 in 12 Std. Schnee, Sprühregen
Ortszeit Niederschlagsmenge Niederschlagsart
Sa, 05.12. 4:30 0.0 l/m2 in 1 Std. -
Sa, 05.12. 4:20 keine Meldung -
Sa, 05.12. 4:10 keine Meldung -
Sa, 05.12. 4:00 0.0 l/m2 in 1 Std. -
Sa, 05.12. 3:50 keine Meldung -
Sa, 05.12. 3:40 keine Meldung -
Sa, 05.12. 3:30 0.0 l/m2 in 1 Std. -
Sa, 05.12. 3:00 0.0 l/m2 in 1 Std. -
Sa, 05.12. 2:30 0.0 l/m2 in 1 Std. -
Sa, 05.12. 2:00 0.0 l/m2 in 1 Std. -
Sa, 05.12. 1:30 0.0 l/m2 in 1 Std. -
Ortszeit Stärke Spitze Richtung
km/h Bft. km/h Grad Sektor
Sa, 05.12. 1:00 7 2 18 360° N
Fr, 04.12. 19:00 4 1 18 350° N
Fr, 04.12. 13:00 4 1 11 240° SW
Fr, 04.12. 7:00 2 1 9 260° W
Fr, 04.12. 1:00 7 2 14 90° O
Do, 03.12. 19:00 4 1 18 360° N
Do, 03.12. 13:00 7 2 22 180° S
Do, 03.12. 7:00 6 1 9 230° SW
Ortszeit Stärke Spitze Richtung
km/h Bft. km/h Grad Sektor
Sa, 05.12. 4:30 7 2 11 320° NW
Sa, 05.12. 4:20 7 2 - 320° NW
Sa, 05.12. 4:10 6 1 - 350° N
Sa, 05.12. 4:00 7 2 11 340° N
Sa, 05.12. 3:50 7 2 - 340° N
Sa, 05.12. 3:40 7 2 - 360° N
Sa, 05.12. 3:30 6 1 11 350° N
Sa, 05.12. 3:00 6 1 15 360° N
Sa, 05.12. 2:30 6 1 11 340° N
Sa, 05.12. 2:00 7 2 15 350° N
Sa, 05.12. 1:30 6 1 11 350° N
Ortszeit Untergrenze Bedeckung Gattung
total tief tief mittel hoch
Sa, 05.12. 1:00 6300 m 8/8 3/8 - - -
Fr, 04.12. 19:00 - 0/8 0/8 - - -
Fr, 04.12. 13:00 7200 m 4/8 0/8 - - -
Fr, 04.12. 7:00 6000 m 8/8 8/8 - - -
Fr, 04.12. 1:00 - 0/8 0/8 - - -
Do, 03.12. 19:00 - 0/8 0/8 - - -
Do, 03.12. 13:00 240 m 8/8 8/8 - - -
Do, 03.12. 7:00 420 m 7/8 7/8 - - -
Ortszeit Bedeckungsgrad in Achtel und Wolkenuntergrenze
Sa, 05.12. 4:30 2(6000m)
Sa, 05.12. 4:20 2(6000m)
Sa, 05.12. 4:10 3(6000m)
Sa, 05.12. 4:00 keine Wolken
Sa, 05.12. 3:50 keine Wolken
Sa, 05.12. 3:40 1(8400m) 2(9000m)
Sa, 05.12. 3:30 8(8700m)
Sa, 05.12. 3:00 8(8700m)
Sa, 05.12. 2:30 4(6000m) 8(8400m)
Sa, 05.12. 2:00 5(6300m) 7(8700m)
Sa, 05.12. 1:30 1(6600m) 3(8100m) 5(9000m)
Ortszeit Luftdruck NN (hPa) Tendenz (hPa in 3 Std.)
Sa, 05.12. 1:00 995 - 0,8
Fr, 04.12. 19:00 995 + 0,1
Fr, 04.12. 13:00 994 - 1,1
Fr, 04.12. 7:00 999 - 1,4
Fr, 04.12. 1:00 1002 - 3,0
Do, 03.12. 19:00 1007 - 2,2
Do, 03.12. 13:00 1010 - 1,9
Do, 03.12. 7:00 1013 - 1,2
Ortszeit Luftdruck NN (hPa) Tendenz (hPa in 3 Std.)
Sa, 05.12. 4:30 996 + 0,4
Sa, 05.12. 4:20 996 keine Meldung
Sa, 05.12. 4:10 996 keine Meldung
Sa, 05.12. 4:00 996 + 0,2
Sa, 05.12. 3:50 996 keine Meldung
Sa, 05.12. 3:40 996 keine Meldung
Sa, 05.12. 3:30 996 + 0,6
Sa, 05.12. 3:00 996 + 0,5
Sa, 05.12. 2:30 996 - 0,2
Sa, 05.12. 2:00 995 - 0,6
Sa, 05.12. 1:30 995 - 0,9
Ortszeit Schneehöhe (cm)
Sa, 05.12. 1:00 0
Fr, 04.12. 19:00 0
Fr, 04.12. 13:00 0
Fr, 04.12. 7:00 0
Fr, 04.12. 1:00 0
Do, 03.12. 19:00 0
Do, 03.12. 13:00 0
Do, 03.12. 7:00 1
Ortszeit Schneehöhe (cm)
Sa, 05.12. 4:30 0
Sa, 05.12. 4:20 0
Sa, 05.12. 4:10 0
Sa, 05.12. 4:00 0
Sa, 05.12. 3:50 0
Sa, 05.12. 3:40 0
Sa, 05.12. 3:30 0
Sa, 05.12. 3:00 0
Sa, 05.12. 2:30 0
Sa, 05.12. 2:00 0
Sa, 05.12. 1:30 0
Link zu dieser Seite / Seite empfehlen

Das Wetter in ...